sensor_id;sensor_type;location;lat;lon;timestamp;pressure;altitude;pressure_sealevel;temperature;humidity
76609;BME280;65928;53.936;27.540;2023-01-26T00:01:58;99652.19;;;-1.36;70.43
76609;BME280;65928;53.936;27.540;2023-01-26T00:04:24;99579.59;;;-1.48;69.85
76609;BME280;65928;53.936;27.540;2023-01-26T00:06:49;99915.16;;;0.20;70.46
76609;BME280;65928;53.936;27.540;2023-01-26T00:09:15;100023.78;;;0.90;70.37
76609;BME280;65928;53.936;27.540;2023-01-26T00:11:40;100093.16;;;0.96;71.11
76609;BME280;65928;53.936;27.540;2023-01-26T00:14:06;100093.19;;;0.97;72.07
76609;BME280;65928;53.936;27.540;2023-01-26T00:16:32;99972.38;;;0.32;71.35
76609;BME280;65928;53.936;27.540;2023-01-26T00:18:57;99838.75;;;-0.25;70.50
76609;BME280;65928;53.936;27.540;2023-01-26T00:21:23;100066.16;;;0.66;71.93
76609;BME280;65928;53.936;27.540;2023-01-26T00:23:50;100053.22;;;0.75;71.65
76609;BME280;65928;53.936;27.540;2023-01-26T00:26:19;100025.38;;;0.62;71.88
76609;BME280;65928;53.936;27.540;2023-01-26T00:28:45;99603.53;;;-1.84;71.73
76609;BME280;65928;53.936;27.540;2023-01-26T00:31:13;99550.59;;;-2.17;71.12
76609;BME280;65928;53.936;27.540;2023-01-26T00:33:39;100151.38;;;1.08;71.51
76609;BME280;65928;53.936;27.540;2023-01-26T00:36:05;100075.09;;;1.24;70.30
76609;BME280;65928;53.936;27.540;2023-01-26T00:38:31;99560.41;;;-1.72;70.13
76609;BME280;65928;53.936;27.540;2023-01-26T00:40:57;100083.81;;;1.50;70.06
76609;BME280;65928;53.936;27.540;2023-01-26T00:43:23;100094.91;;;0.93;71.58
76609;BME280;65928;53.936;27.540;2023-01-26T00:45:48;99681.53;;;-1.41;71.47
76609;BME280;65928;53.936;27.540;2023-01-26T00:48:14;100117.56;;;1.19;71.06
76609;BME280;65928;53.936;27.540;2023-01-26T00:50:39;99547.22;;;-2.09;70.97
76609;BME280;65928;53.936;27.540;2023-01-26T00:53:05;100090.47;;;0.74;71.92
76609;BME280;65928;53.936;27.540;2023-01-26T00:55:30;99870.00;;;-0.05;70.72
76609;BME280;65928;53.936;27.540;2023-01-26T00:58:06;99587.28;;;-1.60;70.73
76609;BME280;65928;53.936;27.540;2023-01-26T01:00:34;99895.16;;;0.02;71.19
76609;BME280;65928;53.936;27.540;2023-01-26T01:03:01;99622.56;;;-1.75;71.94
76609;BME280;65928;53.936;27.540;2023-01-26T01:05:28;99869.97;;;-0.10;71.20
76609;BME280;65928;53.936;27.540;2023-01-26T01:07:54;99570.69;;;-1.89;71.21
76609;BME280;65928;53.936;27.540;2023-01-26T01:10:20;99574.09;;;-1.93;71.52
76609;BME280;65928;53.936;27.540;2023-01-26T01:12:46;100048.78;;;0.62;71.10
76609;BME280;65928;53.936;27.540;2023-01-26T01:15:11;100109.00;;;1.45;70.74
76609;BME280;65928;53.936;27.540;2023-01-26T01:17:37;99952.38;;;0.11;71.90
76609;BME280;65928;53.936;27.540;2023-01-26T01:20:05;99554.91;;;-2.21;71.31
76609;BME280;65928;53.936;27.540;2023-01-26T01:22:34;100068.00;;;0.90;72.34
76609;BME280;65928;53.936;27.540;2023-01-26T01:25:01;99516.25;;;-1.97;70.71
76609;BME280;65928;53.936;27.540;2023-01-26T01:27:26;99561.34;;;-1.66;70.84
76609;BME280;65928;53.936;27.540;2023-01-26T01:29:51;99648.09;;;-0.98;70.46
76609;BME280;65928;53.936;27.540;2023-01-26T01:32:18;99947.50;;;0.99;69.77
76609;BME280;65928;53.936;27.540;2023-01-26T01:34:46;99558.97;;;-1.18;69.74
76609;BME280;65928;53.936;27.540;2023-01-26T01:37:12;99639.59;;;-0.59;69.71
76609;BME280;65928;53.936;27.540;2023-01-26T01:39:38;100048.25;;;1.58;70.68
76609;BME280;65928;53.936;27.540;2023-01-26T01:42:03;99604.00;;;-1.04;70.48
76609;BME280;65928;53.936;27.540;2023-01-26T01:44:29;100054.28;;;1.50;70.69
76609;BME280;65928;53.936;27.540;2023-01-26T01:49:27;99641.31;;;-0.67;69.85
76609;BME280;65928;53.936;27.540;2023-01-26T01:52:10;99961.38;;;1.02;70.97
76609;BME280;65928;53.936;27.540;2023-01-26T01:54:58;99534.69;;;-1.38;70.49
76609;BME280;65928;53.936;27.540;2023-01-26T01:57:30;100009.09;;;1.09;72.47
76609;BME280;65928;53.936;27.540;2023-01-26T02:00:12;99465.38;;;-1.83;71.40
76609;BME280;65928;53.936;27.540;2023-01-26T02:02:38;99927.38;;;0.43;72.23
76609;BME280;65928;53.936;27.540;2023-01-26T02:05:12;99552.56;;;-1.86;73.05
76609;BME280;65928;53.936;27.540;2023-01-26T02:07:41;99590.94;;;-1.22;72.28
76609;BME280;65928;53.936;27.540;2023-01-26T02:10:08;100015.22;;;1.44;71.54
76609;BME280;65928;53.936;27.540;2023-01-26T02:12:44;99895.44;;;0.79;71.10
76609;BME280;65928;53.936;27.540;2023-01-26T02:15:10;99502.66;;;-1.55;71.04
76609;BME280;65928;53.936;27.540;2023-01-26T02:17:36;100006.56;;;1.63;70.79
76609;BME280;65928;53.936;27.540;2023-01-26T02:28:17;99897.19;;;1.00;71.26
76609;BME280;65928;53.936;27.540;2023-01-26T02:30:43;99885.91;;;1.02;70.27
76609;BME280;65928;53.936;27.540;2023-01-26T02:33:19;99496.72;;;-1.22;69.64
76609;BME280;65928;53.936;27.540;2023-01-26T02:35:45;99965.75;;;1.62;69.97
76609;BME280;65928;53.936;27.540;2023-01-26T02:38:11;100041.28;;;1.63;70.76
76609;BME280;65928;53.936;27.540;2023-01-26T02:40:37;100070.75;;;1.35;71.77
76609;BME280;65928;53.936;27.540;2023-01-26T02:43:05;99521.00;;;-1.05;70.27
76609;BME280;65928;53.936;27.540;2023-01-26T02:45:31;99993.53;;;1.92;69.79
76609;BME280;65928;53.936;27.540;2023-01-26T02:47:58;99937.09;;;1.44;70.10
76609;BME280;65928;53.936;27.540;2023-01-26T02:50:29;99487.97;;;-1.59;71.52
76609;BME280;65928;53.936;27.540;2023-01-26T02:52:55;99745.41;;;0.37;69.79
76609;BME280;65928;53.936;27.540;2023-01-26T02:55:20;100049.97;;;1.70;70.34
76609;BME280;65928;53.936;27.540;2023-01-26T02:57:47;99968.34;;;1.74;70.10
76609;BME280;65928;53.936;27.540;2023-01-26T03:00:21;99996.13;;;1.60;70.43
76609;BME280;65928;53.936;27.540;2023-01-26T03:02:48;99968.38;;;1.39;71.13
76609;BME280;65928;53.936;27.540;2023-01-26T03:05:15;99578.13;;;-0.84;70.65
76609;BME280;65928;53.936;27.540;2023-01-26T03:07:41;99475.06;;;-1.48;70.42
76609;BME280;65928;53.936;27.540;2023-01-26T03:10:07;99897.19;;;1.31;70.27
76609;BME280;65928;53.936;27.540;2023-01-26T03:12:32;100036.97;;;1.80;69.77
76609;BME280;65928;53.936;27.540;2023-01-26T03:14:58;99884.19;;;1.03;70.39
76609;BME280;65928;53.936;27.540;2023-01-26T03:17:43;100046.50;;;1.69;70.06
76609;BME280;65928;53.936;27.540;2023-01-26T03:20:09;99966.63;;;1.70;70.06
76609;BME280;65928;53.936;27.540;2023-01-26T03:22:53;99463.03;;;-1.33;70.36
76609;BME280;65928;53.936;27.540;2023-01-26T03:25:37;99521.94;;;-0.70;69.46
76609;BME280;65928;53.936;27.540;2023-01-26T03:28:21;99481.13;;;-1.45;70.20
76609;BME280;65928;53.936;27.540;2023-01-26T03:30:52;99417.94;;;-1.82;70.96
76609;BME280;65928;53.936;27.540;2023-01-26T03:33:20;99448.31;;;-1.44;71.04
76609;BME280;65928;53.936;27.540;2023-01-26T03:35:46;99604.97;;;-0.67;71.51
76609;BME280;65928;53.936;27.540;2023-01-26T03:38:12;99500.19;;;-1.22;71.26
76609;BME280;65928;53.936;27.540;2023-01-26T03:40:37;99944.06;;;1.49;70.98
76609;BME280;65928;53.936;27.540;2023-01-26T03:43:21;99443.13;;;-1.43;70.64
76609;BME280;65928;53.936;27.540;2023-01-26T03:46:06;99938.84;;;1.70;70.21
76609;BME280;65928;53.936;27.540;2023-01-26T03:48:51;99459.63;;;-1.15;70.42
76609;BME280;65928;53.936;27.540;2023-01-26T03:51:34;99925.84;;;1.24;70.87
76609;BME280;65928;53.936;27.540;2023-01-26T03:54:18;99966.63;;;1.22;71.72
76609;BME280;65928;53.936;27.540;2023-01-26T03:57:02;99462.13;;;-1.42;70.68
76609;BME280;65928;53.936;27.540;2023-01-26T03:59:28;99446.56;;;-1.48;70.65
76609;BME280;65928;53.936;27.540;2023-01-26T04:02:07;99949.28;;;1.45;70.46
76609;BME280;65928;53.936;27.540;2023-01-26T04:04:51;99585.09;;;-0.63;71.17
76609;BME280;65928;53.936;27.540;2023-01-26T04:07:35;99951.00;;;1.49;70.94
76609;BME280;65928;53.936;27.540;2023-01-26T04:10:20;99918.00;;;1.69;69.98
76609;BME280;65928;53.936;27.540;2023-01-26T04:12:46;99771.44;;;0.81;70.41
76609;BME280;65928;53.936;27.540;2023-01-26T04:15:30;99857.25;;;0.60;72.34
76609;BME280;65928;53.936;27.540;2023-01-26T04:18:14;99428.41;;;-1.56;72.09
76609;BME280;65928;53.936;27.540;2023-01-26T04:21:01;99900.66;;;1.02;72.69
76609;BME280;65928;53.936;27.540;2023-01-26T04:23:45;99586.84;;;-0.52;72.01
76609;BME280;65928;53.936;27.540;2023-01-26T04:26:10;99646.63;;;-0.22;71.56
76609;BME280;65928;53.936;27.540;2023-01-26T04:28:36;99860.72;;;0.87;72.22
76609;BME280;65928;53.936;27.540;2023-01-26T04:31:02;99945.75;;;1.90;71.65
76609;BME280;65928;53.936;27.540;2023-01-26T04:33:29;99446.50;;;-1.59;72.16
76609;BME280;65928;53.936;27.540;2023-01-26T04:35:54;99723.72;;;0.07;73.13
76609;BME280;65928;53.936;27.540;2023-01-26T04:38:20;99599.72;;;-0.83;73.82
76609;BME280;65928;53.936;27.540;2023-01-26T04:40:52;99604.97;;;-0.64;73.69
76609;BME280;65928;53.936;27.540;2023-01-26T04:43:17;99692.53;;;0.14;72.52
76609;BME280;65928;53.936;27.540;2023-01-26T04:45:43;99432.81;;;-1.13;72.24
76609;BME280;65928;53.936;27.540;2023-01-26T04:48:08;99393.00;;;-1.42;72.13
76609;BME280;65928;53.936;27.540;2023-01-26T04:50:34;99524.44;;;-1.15;72.57
76609;BME280;65928;53.936;27.540;2023-01-26T04:52:59;99444.00;;;-1.44;73.69
76609;BME280;65928;53.936;27.540;2023-01-26T04:55:25;99915.41;;;1.07;74.82
76609;BME280;65928;53.936;27.540;2023-01-26T04:57:50;99948.38;;;1.80;72.41
76609;BME280;65928;53.936;27.540;2023-01-26T05:00:16;99542.75;;;-0.49;72.42
76609;BME280;65928;53.936;27.540;2023-01-26T05:02:41;99949.25;;;1.61;72.21
76609;BME280;65928;53.936;27.540;2023-01-26T05:05:07;99423.13;;;-1.72;73.57
76609;BME280;65928;53.936;27.540;2023-01-26T05:07:33;99948.41;;;1.29;74.15
76609;BME280;65928;53.936;27.540;2023-01-26T05:09:58;99476.88;;;-1.22;73.13
76609;BME280;65928;53.936;27.540;2023-01-26T05:12:23;99839.94;;;0.69;73.95
76609;BME280;65928;53.936;27.540;2023-01-26T05:14:58;99463.03;;;-1.33;73.00
76609;BME280;65928;53.936;27.540;2023-01-26T05:17:23;99550.47;;;-0.70;72.89
76609;BME280;65928;53.936;27.540;2023-01-26T05:19:49;99451.81;;;-1.21;72.94
76609;BME280;65928;53.936;27.540;2023-01-26T05:22:14;99450.97;;;-1.14;72.76
76609;BME280;65928;53.936;27.540;2023-01-26T05:24:40;99502.84;;;-1.08;73.62
76609;BME280;65928;53.936;27.540;2023-01-26T05:27:05;100010.91;;;1.73;73.67
76609;BME280;65928;53.936;27.540;2023-01-26T05:29:46;99458.66;;;-1.52;74.11
76609;BME280;65928;53.936;27.540;2023-01-26T05:32:12;99432.81;;;-1.13;73.83
76609;BME280;65928;53.936;27.540;2023-01-26T05:34:38;99939.72;;;1.38;74.67
76609;BME280;65928;53.936;27.540;2023-01-26T05:37:03;99861.63;;;1.15;73.60
76609;BME280;65928;53.936;27.540;2023-01-26T05:39:29;99939.69;;;1.80;73.32
76609;BME280;65928;53.936;27.540;2023-01-26T05:41:54;99466.56;;;-0.88;72.89
76609;BME280;65928;53.936;27.540;2023-01-26T05:44:21;99421.59;;;-1.06;72.39
76609;BME280;65928;53.936;27.540;2023-01-26T05:46:47;99947.50;;;1.98;72.85
76609;BME280;65928;53.936;27.540;2023-01-26T05:49:13;99869.38;;;1.56;72.41
76609;BME280;65928;53.936;27.540;2023-01-26T05:51:38;99423.34;;;-0.99;72.00
76609;BME280;65928;53.936;27.540;2023-01-26T05:54:04;99382.72;;;-1.13;71.73
76609;BME280;65928;53.936;27.540;2023-01-26T05:56:29;99498.59;;;-0.23;71.17
76609;BME280;65928;53.936;27.540;2023-01-26T05:58:55;99928.34;;;2.11;71.09
76609;BME280;65928;53.936;27.540;2023-01-26T06:01:20;99498.56;;;-0.77;71.55
76609;BME280;65928;53.936;27.540;2023-01-26T06:03:46;99924.09;;;1.44;72.84
76609;BME280;65928;53.936;27.540;2023-01-26T06:06:11;99923.22;;;1.60;73.12
76609;BME280;65928;53.936;27.540;2023-01-26T06:08:37;99403.38;;;-1.36;72.59
76609;BME280;65928;53.936;27.540;2023-01-26T06:11:02;99381.81;;;-1.20;71.11
76609;BME280;65928;53.936;27.540;2023-01-26T06:13:28;99476.91;;;-1.11;72.63
76609;BME280;65928;53.936;27.540;2023-01-26T06:15:53;99971.81;;;1.07;73.91
76609;BME280;65928;53.936;27.540;2023-01-26T06:18:19;99908.47;;;1.59;72.96
76609;BME280;65928;53.936;27.540;2023-01-26T06:20:44;99894.53;;;1.73;71.59
76609;BME280;65928;53.936;27.540;2023-01-26T06:23:10;99395.66;;;-1.12;71.07
76609;BME280;65928;53.936;27.540;2023-01-26T06:25:39;99883.22;;;1.79;70.85
76609;BME280;65928;53.936;27.540;2023-01-26T06:28:05;99870.25;;;1.64;71.24
76609;BME280;65928;53.936;27.540;2023-01-26T06:30:31;99422.38;;;-1.49;72.71
76609;BME280;65928;53.936;27.540;2023-01-26T06:32:58;99727.22;;;0.45;72.11
76609;BME280;65928;53.936;27.540;2023-01-26T06:35:24;99420.78;;;-0.74;70.37
76609;BME280;65928;53.936;27.540;2023-01-26T06:37:51;99397.41;;;-0.94;70.76
76609;BME280;65928;53.936;27.540;2023-01-26T06:40:17;99361.94;;;-1.30;70.94
76609;BME280;65928;53.936;27.540;2023-01-26T06:42:47;99909.25;;;2.03;71.07
76609;BME280;65928;53.936;27.540;2023-01-26T06:45:13;99767.09;;;1.10;71.10
76609;BME280;65928;53.936;27.540;2023-01-26T06:47:44;99516.78;;;-0.38;70.67
76609;BME280;65928;53.936;27.540;2023-01-26T06:50:10;99890.16;;;1.92;71.08
76609;BME280;65928;53.936;27.540;2023-01-26T06:52:35;99906.72;;;1.80;71.68
76609;BME280;65928;53.936;27.540;2023-01-26T06:55:02;99964.00;;;1.88;71.70
76609;BME280;65928;53.936;27.540;2023-01-26T06:57:28;99406.91;;;-0.95;71.12
76609;BME280;65928;53.936;27.540;2023-01-26T06:59:53;99873.75;;;1.40;72.02
76609;BME280;65928;53.936;27.540;2023-01-26T07:02:21;99892.81;;;1.63;72.41
76609;BME280;65928;53.936;27.540;2023-01-26T07:04:47;99472.63;;;-1.02;71.68
76609;BME280;65928;53.936;27.540;2023-01-26T07:07:13;99911.91;;;1.05;74.26
76609;BME280;65928;53.936;27.540;2023-01-26T07:09:39;99883.31;;;1.43;72.34
76609;BME280;65928;53.936;27.540;2023-01-26T07:12:05;99906.75;;;1.28;73.54
76609;BME280;65928;53.936;27.540;2023-01-26T07:14:31;99492.53;;;-0.73;72.47
76609;BME280;65928;53.936;27.540;2023-01-26T07:16:56;99413.84;;;-1.00;71.84
76609;BME280;65928;53.936;27.540;2023-01-26T07:19:22;99701.22;;;0.73;71.18
76609;BME280;65928;53.936;27.540;2023-01-26T07:21:47;99897.16;;;1.73;72.27
76609;BME280;65928;53.936;27.540;2023-01-26T07:24:13;99813.84;;;1.54;71.61
76609;BME280;65928;53.936;27.540;2023-01-26T07:26:38;99912.63;;;2.32;70.49
76609;BME280;65928;53.936;27.540;2023-01-26T07:29:04;99891.06;;;1.77;72.29
76609;BME280;65928;53.936;27.540;2023-01-26T07:31:29;99365.41;;;-1.08;71.37
76609;BME280;65928;53.936;27.540;2023-01-26T07:33:55;99464.84;;;-0.64;71.81
76609;BME280;65928;53.936;27.540;2023-01-26T07:36:21;99807.72;;;1.76;71.30
76609;BME280;65928;53.936;27.540;2023-01-26T07:38:46;99403.47;;;-0.65;71.06
76609;BME280;65928;53.936;27.540;2023-01-26T07:41:12;99477.84;;;-0.47;71.61
76609;BME280;65928;53.936;27.540;2023-01-26T07:43:38;99476.13;;;-0.24;70.83
76609;BME280;65928;53.936;27.540;2023-01-26T07:46:05;99636.16;;;0.90;70.71
76609;BME280;65928;53.936;27.540;2023-01-26T07:48:30;99884.78;;;2.31;70.55
76609;BME280;65928;53.936;27.540;2023-01-26T07:51:03;99463.09;;;0.03;69.79
76609;BME280;65928;53.936;27.540;2023-01-26T07:53:29;99888.28;;;2.30;70.32
76609;BME280;65928;53.936;27.540;2023-01-26T07:56:07;99450.91;;;0.20;68.98
76609;BME280;65928;53.936;27.540;2023-01-26T07:58:33;99453.56;;;0.10;69.55
76609;BME280;65928;53.936;27.540;2023-01-26T08:01:11;99869.81;;;2.71;68.56
76609;BME280;65928;53.936;27.540;2023-01-26T08:03:38;99783.25;;;2.04;69.07
76609;BME280;65928;53.936;27.540;2023-01-26T08:06:04;99926.50;;;2.31;69.87
76609;BME280;65928;53.936;27.540;2023-01-26T08:08:29;99940.31;;;2.57;68.79
76609;BME280;65928;53.936;27.540;2023-01-26T08:10:58;99355.00;;;-0.45;68.38
76609;BME280;65928;53.936;27.540;2023-01-26T08:13:26;99865.00;;;1.79;70.49
76609;BME280;65928;53.936;27.540;2023-01-26T08:15:52;99703.78;;;0.96;70.21
76609;BME280;65928;53.936;27.540;2023-01-26T08:18:18;99401.72;;;-0.52;69.76
76609;BME280;65928;53.936;27.540;2023-01-26T08:20:50;99402.59;;;-0.53;69.89
76609;BME280;65928;53.936;27.540;2023-01-26T08:23:16;99889.16;;;2.31;69.51
76609;BME280;65928;53.936;27.540;2023-01-26T08:25:41;99475.16;;;0.18;68.53
76609;BME280;65928;53.936;27.540;2023-01-26T08:28:07;99393.91;;;-0.36;68.90
76609;BME280;65928;53.936;27.540;2023-01-26T08:30:32;99491.56;;;0.36;68.81
76609;BME280;65928;53.936;27.540;2023-01-26T08:32:58;99360.22;;;-0.75;69.07
76609;BME280;65928;53.936;27.540;2023-01-26T08:35:23;99894.50;;;1.98;70.10
76609;BME280;65928;53.936;27.540;2023-01-26T08:37:49;99596.44;;;-0.04;71.08
76609;BME280;65928;53.936;27.540;2023-01-26T08:40:14;99947.53;;;1.51;71.62
76609;BME280;65928;53.936;27.540;2023-01-26T08:42:40;99990.91;;;1.81;70.97
76609;BME280;65928;53.936;27.540;2023-01-26T08:45:06;99897.13;;;1.92;70.29
76609;BME280;65928;53.936;27.540;2023-01-26T08:47:32;99871.06;;;1.86;69.98
76609;BME280;65928;53.936;27.540;2023-01-26T08:49:57;99427.66;;;-0.88;69.86
76609;BME280;65928;53.936;27.540;2023-01-26T08:52:23;99806.03;;;1.52;69.60
76609;BME280;65928;53.936;27.540;2023-01-26T08:54:48;99765.31;;;1.26;70.08
76609;BME280;65928;53.936;27.540;2023-01-26T08:57:14;99913.69;;;1.53;71.23
76609;BME280;65928;53.936;27.540;2023-01-26T08:59:39;99393.94;;;-0.88;69.83
76609;BME280;65928;53.936;27.540;2023-01-26T09:02:05;99430.28;;;-0.45;68.79
76609;BME280;65928;53.936;27.540;2023-01-26T09:04:30;99383.56;;;-0.54;69.16
76609;BME280;65928;53.936;27.540;2023-01-26T09:06:55;99889.13;;;2.37;69.03
76609;BME280;65928;53.936;27.540;2023-01-26T09:09:21;99871.81;;;2.25;68.77
76609;BME280;65928;53.936;27.540;2023-01-26T09:11:47;99469.13;;;0.08;68.72
76609;BME280;65928;53.936;27.540;2023-01-26T09:14:12;99369.72;;;-0.50;68.71
76609;BME280;65928;53.936;27.540;2023-01-26T09:16:38;99392.19;;;-0.41;68.14
76609;BME280;65928;53.936;27.540;2023-01-26T09:19:03;99342.84;;;-0.31;67.49
76609;BME280;65928;53.936;27.540;2023-01-26T09:21:29;99672.31;;;1.67;66.96
76609;BME280;65928;53.936;27.540;2023-01-26T09:23:55;99379.25;;;-0.61;67.79
76609;BME280;65928;53.936;27.540;2023-01-26T09:26:21;99934.31;;;2.36;68.75
76609;BME280;65928;53.936;27.540;2023-01-26T09:28:51;99385.31;;;-0.72;68.40
76609;BME280;65928;53.936;27.540;2023-01-26T09:31:17;99373.16;;;-0.43;67.92
76609;BME280;65928;53.936;27.540;2023-01-26T09:33:42;99389.59;;;-0.34;68.17
76609;BME280;65928;53.936;27.540;2023-01-26T09:36:10;99763.50;;;1.52;69.59
76609;BME280;65928;53.936;27.540;2023-01-26T09:38:36;99875.25;;;2.32;68.28
76609;BME280;65928;53.936;27.540;2023-01-26T09:44:15;99726.19;;;1.50;67.86
76609;BME280;65928;53.936;27.540;2023-01-26T09:49:43;99858.75;;;2.28;68.86
76609;BME280;65928;53.936;27.540;2023-01-26T09:52:25;99863.22;;;1.89;69.63
76609;BME280;65928;53.936;27.540;2023-01-26T09:54:53;99358.50;;;-1.00;68.77
76609;BME280;65928;53.936;27.540;2023-01-26T09:57:28;99505.47;;;-0.87;70.63
76609;BME280;65928;53.936;27.540;2023-01-26T10:08:00;99352.47;;;-1.05;69.30
76609;BME280;65928;53.936;27.540;2023-01-26T10:10:33;99409.50;;;-0.88;69.85
76609;BME280;65928;53.936;27.540;2023-01-26T10:13:00;99712.31;;;1.46;68.72
76609;BME280;65928;53.936;27.540;2023-01-26T10:15:33;99837.00;;;2.31;67.81
76609;BME280;65928;53.936;27.540;2023-01-26T10:18:11;99386.16;;;-1.25;69.97
76609;BME280;65928;53.936;27.540;2023-01-26T10:20:44;99345.50;;;-0.70;67.71
76609;BME280;65928;53.936;27.540;2023-01-26T10:23:32;99816.53;;;0.97;70.04
76609;BME280;65928;53.936;27.540;2023-01-26T10:26:21;99852.84;;;1.78;69.41
76609;BME280;65928;53.936;27.540;2023-01-26T10:28:49;99775.53;;;1.88;69.00
76609;BME280;65928;53.936;27.540;2023-01-26T10:31:18;99355.00;;;-0.42;67.42
76609;BME280;65928;53.936;27.540;2023-01-26T10:33:53;99342.78;;;-0.13;67.01
76609;BME280;65928;53.936;27.540;2023-01-26T10:36:19;99790.91;;;2.34;67.01
76609;BME280;65928;53.936;27.540;2023-01-26T10:38:45;99471.59;;;0.52;66.91
76609;BME280;65928;53.936;27.540;2023-01-26T10:43:53;99836.16;;;2.26;67.81
76609;BME280;65928;53.936;27.540;2023-01-26T10:46:35;99831.81;;;2.26;67.58
76609;BME280;65928;53.936;27.540;2023-01-26T10:49:22;99819.50;;;2.49;67.04
76609;BME280;65928;53.936;27.540;2023-01-26T10:54:43;99395.44;;;0.35;66.33
76609;BME280;65928;53.936;27.540;2023-01-26T10:57:26;99272.00;;;-0.73;67.62
76609;BME280;65928;53.936;27.540;2023-01-26T11:00:02;99829.06;;;2.53;66.64
76609;BME280;65928;53.936;27.540;2023-01-26T11:02:34;99719.66;;;2.34;66.27
76609;BME280;65928;53.936;27.540;2023-01-26T11:05:02;99691.44;;;1.57;67.16
76609;BME280;65928;53.936;27.540;2023-01-26T11:07:35;99307.22;;;0.05;65.81
76609;BME280;65928;53.936;27.540;2023-01-26T11:13:23;99786.78;;;3.18;64.84
76609;BME280;65928;53.936;27.540;2023-01-26T11:16:19;99844.31;;;3.08;64.93
76609;BME280;65928;53.936;27.540;2023-01-26T11:22:13;99763.81;;;2.55;66.07
76609;BME280;65928;53.936;27.540;2023-01-26T11:32:38;99840.53;;;3.43;64.86
76609;BME280;65928;53.936;27.540;2023-01-26T11:43:50;99766.78;;;3.17;65.93
76609;BME280;65928;53.936;27.540;2023-01-26T11:46:36;99675.25;;;2.44;66.44
76609;BME280;65928;53.936;27.540;2023-01-26T12:02:36;99492.50;;;1.73;66.15
76609;BME280;65928;53.936;27.540;2023-01-26T12:05:14;99354.34;;;0.93;65.70
76609;BME280;65928;53.936;27.540;2023-01-26T12:10:23;99286.97;;;0.59;65.92
76609;BME280;65928;53.936;27.540;2023-01-26T12:13:32;99372.63;;;0.80;66.63
76609;BME280;65928;53.936;27.540;2023-01-26T12:15:55;99290.38;;;0.64;65.19
76609;BME280;65928;53.936;27.540;2023-01-26T12:18:42;99759.06;;;3.07;66.61
76609;BME280;65928;53.936;27.540;2023-01-26T12:21:13;99566.88;;;2.10;66.18
76609;BME280;65928;53.936;27.540;2023-01-26T12:23:55;99630.97;;;2.38;65.97
76609;BME280;65928;53.936;27.540;2023-01-26T12:26:24;99715.78;;;2.82;66.07
76609;BME280;65928;53.936;27.540;2023-01-26T12:29:12;99755.38;;;3.26;65.63
76609;BME280;65928;53.936;27.540;2023-01-26T12:31:59;99257.63;;;0.44;65.26
76609;BME280;65928;53.936;27.540;2023-01-26T12:34:30;99259.44;;;0.30;66.30
76609;BME280;65928;53.936;27.540;2023-01-26T12:37:14;99683.66;;;2.75;66.20
76609;BME280;65928;53.936;27.540;2023-01-26T12:39:49;99810.31;;;3.15;66.26
76609;BME280;65928;53.936;27.540;2023-01-26T12:44:56;99738.25;;;2.98;66.38
76609;BME280;65928;53.936;27.540;2023-01-26T12:47:28;99751.53;;;2.70;67.79
76609;BME280;65928;53.936;27.540;2023-01-26T12:57:52;99731.31;;;2.97;67.17
76609;BME280;65928;53.936;27.540;2023-01-26T13:00:27;99281.22;;;0.09;67.67
76609;BME280;65928;53.936;27.540;2023-01-26T13:03:14;99355.41;;;0.66;66.78
76609;BME280;65928;53.936;27.540;2023-01-26T13:06:00;99744.41;;;2.88;67.67
76609;BME280;65928;53.936;27.540;2023-01-26T13:10:55;99327.69;;;0.59;67.37
76609;BME280;65928;53.936;27.540;2023-01-26T13:13:33;99262.25;;;-0.07;67.54
76609;BME280;65928;53.936;27.540;2023-01-26T13:18:55;99275.78;;;0.47;66.43
76609;BME280;65928;53.936;27.540;2023-01-26T13:26:57;99674.44;;;2.36;67.51
76609;BME280;65928;53.936;27.540;2023-01-26T13:31:49;99217.28;;;-0.15;67.07
76609;BME280;65928;53.936;27.540;2023-01-26T13:34:18;99714.91;;;2.83;66.91
76609;BME280;65928;53.936;27.540;2023-01-26T13:36:47;99725.41;;;2.72;67.45
76609;BME280;65928;53.936;27.540;2023-01-26T13:39:25;99731.56;;;2.66;66.76
76609;BME280;65928;53.936;27.540;2023-01-26T13:41:53;99219.84;;;-0.04;66.63
76609;BME280;65928;53.936;27.540;2023-01-26T13:44:29;99706.34;;;2.65;66.92
76609;BME280;65928;53.936;27.540;2023-01-26T13:47:02;99318.41;;;0.23;67.41
76609;BME280;65928;53.936;27.540;2023-01-26T13:49:40;99814.28;;;2.54;67.74
76609;BME280;65928;53.936;27.540;2023-01-26T13:54:44;99659.09;;;1.93;67.50
76609;BME280;65928;53.936;27.540;2023-01-26T13:57:11;99622.72;;;1.79;67.68
76609;BME280;65928;53.936;27.540;2023-01-26T13:59:57;99247.66;;;-0.26;66.87
76609;BME280;65928;53.936;27.540;2023-01-26T14:02:27;99740.22;;;2.71;67.40
76609;BME280;65928;53.936;27.540;2023-01-26T14:04:55;99424.56;;;0.97;67.49
76609;BME280;65928;53.936;27.540;2023-01-26T14:07:40;99709.91;;;2.57;67.55
76609;BME280;65928;53.936;27.540;2023-01-26T14:10:07;99251.94;;;-0.19;67.87
76609;BME280;65928;53.936;27.540;2023-01-26T14:12:42;99732.63;;;2.41;68.71
76609;BME280;65928;53.936;27.540;2023-01-26T14:17:49;99591.44;;;1.82;68.04
76609;BME280;65928;53.936;27.540;2023-01-26T14:25:39;99334.06;;;0.07;68.32
76609;BME280;65928;53.936;27.540;2023-01-26T14:28:13;99629.53;;;2.00;67.69
76609;BME280;65928;53.936;27.540;2023-01-26T14:30:40;99281.28;;;-0.03;67.81
76609;BME280;65928;53.936;27.540;2023-01-26T14:33:13;99617.41;;;1.96;67.67
76609;BME280;65928;53.936;27.540;2023-01-26T14:35:41;99777.06;;;2.22;68.66
76609;BME280;65928;53.936;27.540;2023-01-26T14:38:14;99676.47;;;1.94;69.03
76609;BME280;65928;53.936;27.540;2023-01-26T14:40:49;99199.47;;;-0.98;68.91
76609;BME280;65928;53.936;27.540;2023-01-26T14:43:16;99655.81;;;1.57;68.95
76609;BME280;65928;53.936;27.540;2023-01-26T14:45:53;99209.78;;;-0.72;68.08
76609;BME280;65928;53.936;27.540;2023-01-26T14:48:24;99599.47;;;1.46;68.62
76609;BME280;65928;53.936;27.540;2023-01-26T14:50:53;99688.38;;;2.31;67.94
76609;BME280;65928;53.936;27.540;2023-01-26T14:53:21;99255.38;;;-0.17;67.60